»·PEaware :: PHKIM2 KEMM-KLWL

PHKIM2 :: KEMM-KLWL

FLIGHT INFORMATION

Flight Status: Arrived
Operator: Unknown
More flights by this operator :: More flights under this callsign
Pilot: Kim B. (19519)
Aircraft: BEECH AIRCRAFT BARON
(BE58)
More flights by this aircraft type
Origin: KEMM Kemmerer Mun
United States
Destination: KLWL Wells Mun/Harriet
United States
More flights between these airports :: More routes between these airports
Route: FBR V32 SPATS
File this flight plan on PilotEdge
Remarks:
Altitude:
(Current/Filed)
16,000ft
Speed:
(Current/Filed)
150kts
Departed: 30-Oct-18 04:22 PM
Arrived: 30-Oct-18 05:55 PM
Distance/Time
Traveled:
201nm/1:33
Distance/Time
To Go:
Arrived

Flight Plot

Page will automatically refresh every two minutes.

Flight plan parsing failed; only flown route is shown


Map Options




Map Legend


Flown Route
Filed Route
Departure Airport
Arrival Airport
Navaid (VOR, NDB)
Fix

Horizontal Profiles

Position Reports

Time Latitude Longitude Heading Altitude Ground
Speed
30-Oct-18 16:19 41.821552 -110.555789 172 7275ft 0kts
30-Oct-18 16:20 41.821552 -110.555789 172 7275ft 0kts
30-Oct-18 16:20 41.821552 -110.555789 172 7275ft 0kts
30-Oct-18 16:22 41.821263 -110.556118 244 7275ft 4kts
30-Oct-18 16:22 41.821193 -110.556834 252 7275ft 6kts
30-Oct-18 16:24 41.818908 -110.556917 355 7275ft 1kts
30-Oct-18 16:24 41.838855 -110.559245 352 7515ft 133kts
30-Oct-18 16:25 41.874820 -110.564825 349 8762ft 128kts
30-Oct-18 16:27 41.870448 -110.600784 171 9961ft 149kts
30-Oct-18 16:27 41.836970 -110.589877 167 10796ft 149kts
30-Oct-18 16:29 41.790508 -110.574620 164 11883ft 148kts
30-Oct-18 16:29 41.760733 -110.564085 164 12559ft 151kts
30-Oct-18 16:31 41.713340 -110.546871 164 13610ft 152kts
30-Oct-18 16:31 41.679385 -110.534402 164 14317ft 152kts
30-Oct-18 16:32 41.650181 -110.523644 164 14894ft 152kts
30-Oct-18 16:33 41.609853 -110.508770 165 15665ft 152kts
30-Oct-18 16:34 41.567169 -110.493118 165 16002ft 176kts
30-Oct-18 16:35 41.516451 -110.474604 165 15996ft 197kts
30-Oct-18 16:36 41.462841 -110.455226 165 15996ft 201kts
30-Oct-18 16:37 41.409006 -110.435274 165 15997ft 201kts
30-Oct-18 16:38 41.356944 -110.429384 232 16001ft 186kts
30-Oct-18 16:39 41.340425 -110.491317 261 15998ft 180kts
30-Oct-18 16:40 41.326606 -110.555817 254 15997ft 183kts
30-Oct-18 16:41 41.307382 -110.618622 250 15997ft 184kts
30-Oct-18 16:42 41.286158 -110.680850 249 15996ft 185kts
30-Oct-18 16:43 41.264270 -110.742794 249 15993ft 185kts
30-Oct-18 16:44 41.242551 -110.803498 249 15991ft 185kts
30-Oct-18 16:45 41.220402 -110.865076 249 15989ft 185kts
30-Oct-18 16:46 41.198144 -110.926750 249 15988ft 185kts
30-Oct-18 16:47 41.175768 -110.988608 249 15988ft 187kts
30-Oct-18 16:48 41.153282 -111.050589 249 15986ft 183kts
30-Oct-18 16:49 41.131577 -111.110290 249 15989ft 180kts
30-Oct-18 16:50 41.109575 -111.170747 249 15988ft 183kts
30-Oct-18 16:51 41.087694 -111.230463 249 15987ft 179kts
30-Oct-18 16:52 41.066182 -111.289222 249 15988ft 177kts
30-Oct-18 16:53 41.044629 -111.347935 249 15988ft 177kts
30-Oct-18 16:54 41.029054 -111.390456 249 15980ft 177kts
30-Oct-18 16:55 41.008015 -111.449475 260 15983ft 174kts
30-Oct-18 16:56 41.005344 -111.511503 265 15985ft 172kts
30-Oct-18 16:57 40.991878 -111.573769 255 15989ft 182kts
30-Oct-18 16:58 40.972648 -111.636410 251 15989ft 187kts
30-Oct-18 16:59 40.951427 -111.699402 249 15989ft 189kts
30-Oct-18 17:00 40.929008 -111.762171 249 15989ft 189kts
30-Oct-18 17:01 40.908017 -111.821160 249 15989ft 189kts
30-Oct-18 17:02 40.887370 -111.878376 249 15985ft 189kts
30-Oct-18 17:03 40.864889 -111.940641 249 15990ft 189kts
30-Oct-18 17:04 40.842490 -112.003075 249 15992ft 190kts
30-Oct-18 17:05 40.832833 -112.067275 278 15993ft 182kts
30-Oct-18 17:06 40.832187 -112.134477 271 15996ft 184kts
30-Oct-18 17:07 40.827524 -112.201853 269 16002ft 185kts
30-Oct-18 17:08 40.821458 -112.269321 268 16007ft 185kts
30-Oct-18 17:09 40.814995 -112.335931 268 16012ft 185kts
30-Oct-18 17:10 40.808262 -112.403473 268 16013ft 185kts
30-Oct-18 17:11 40.801647 -112.470654 273 16010ft 184kts
30-Oct-18 17:12 40.799979 -112.537958 271 16012ft 184kts
30-Oct-18 17:13 40.795439 -112.605419 269 16012ft 185kts
30-Oct-18 17:14 40.789699 -112.673133 268 16013ft 185kts
30-Oct-18 17:15 40.783574 -112.740435 268 16013ft 185kts
30-Oct-18 17:16 40.788482 -112.805529 286 16013ft 180kts
30-Oct-18 17:17 40.792724 -112.871741 276 16013ft 183kts
30-Oct-18 17:18 40.790630 -112.938960 272 16012ft 183kts
30-Oct-18 17:19 40.786434 -113.005806 272 16012ft 182kts
30-Oct-18 17:20 40.781581 -113.072358 272 16013ft 181kts
30-Oct-18 17:21 40.776511 -113.138656 272 16015ft 181kts
30-Oct-18 17:22 40.773315 -113.179633 272 16017ft 181kts
30-Oct-18 17:23 40.768184 -113.244715 272 16019ft 181kts
30-Oct-18 17:24 40.762919 -113.310823 272 16021ft 181kts
30-Oct-18 17:25 40.757620 -113.376877 272 16014ft 182kts
30-Oct-18 17:26 40.752272 -113.442996 272 16012ft 181kts
30-Oct-18 17:27 40.746875 -113.509270 272 16012ft 181kts
30-Oct-18 17:28 40.741441 -113.575511 272 16012ft 181kts
30-Oct-18 17:29 40.735982 -113.641583 272 16012ft 181kts
30-Oct-18 17:30 40.727367 -113.707741 266 16013ft 184kts
30-Oct-18 17:31 40.726148 -113.773313 279 16013ft 178kts
30-Oct-18 17:32 40.727589 -113.838429 279 16013ft 178kts
30-Oct-18 17:33 40.728996 -113.904119 279 16012ft 178kts
30-Oct-18 17:34 40.730348 -113.969289 279 16012ft 178kts
30-Oct-18 17:35 40.731661 -114.034381 279 16012ft 178kts
30-Oct-18 17:36 40.732871 -114.096172 279 16012ft 178kts
30-Oct-18 17:37 40.734117 -114.161562 279 16012ft 178kts
30-Oct-18 17:38 40.735324 -114.226911 279 16012ft 178kts
30-Oct-18 17:39 40.736489 -114.292008 279 16012ft 178kts
30-Oct-18 17:40 40.737627 -114.357684 279 16012ft 178kts
30-Oct-18 17:41 40.738723 -114.422920 279 16012ft 178kts
30-Oct-18 17:42 40.739784 -114.488353 279 16012ft 178kts
30-Oct-18 17:43 40.747425 -114.550916 312 15731ft 178kts
30-Oct-18 17:44 40.779189 -114.604031 313 14744ft 180kts
30-Oct-18 17:46 40.807864 -114.651673 313 13772ft 174kts
30-Oct-18 17:47 40.838221 -114.692551 326 12844ft 171kts
30-Oct-18 17:48 40.876530 -114.729051 327 12032ft 161kts
30-Oct-18 17:49 40.912147 -114.763163 327 11869ft 163kts
30-Oct-18 17:50 40.950726 -114.799682 327 11250ft 175kts
30-Oct-18 17:51 40.990088 -114.836596 327 10633ft 163kts
30-Oct-18 17:52 41.018295 -114.862799 332 9655ft 107kts
30-Oct-18 17:53 41.045793 -114.884057 336 8330ft 118kts
30-Oct-18 17:54 41.074555 -114.905420 322 7249ft 122kts
30-Oct-18 17:55 41.098933 -114.907585 67 6502ft 122kts
30-Oct-18 17:56 41.113989 -114.886858 289 6407ft 119kts
30-Oct-18 17:57 41.115926 -114.922107 280 5748ft 51kts
30-Oct-18 17:58 41.115127 -114.925545 276 5738ft 9kts
30-Oct-18 17:59 41.115381 -114.926534 193 5735ft 0kts
30-Oct-18 18:00 41.115381 -114.926534 193 5735ft 0kts

Navigation Log

Ident Type
Flight plan parsing failed, navigation log unavailable